Target — 9HA2149 — position and weather

sailwx.info

Track history (hours):
 
Tides and Currents Weather Stations Pressure Air Temp Water Temp Dewpoint Dewpoint Depression Visibility Wind Speed Wind Dir Waves Ship Positions

Target

Last reported at 2014-Sep-30 22:17 UTC. Time now 2014-Oct-01 22:24 UTC.
Position N 54°41' E 010°55'.

Length 250 m; draft 8 m.

Type: Tanker. MMSI: 248057000.

Date/timePositionNaut miles runAvg speedWind from/ knotsBaromVisibWave heightAir tempDewpointWater temp
2014-Sep-30 22:17N 54°41' E 010°55'912.7
2014-Sep-30 21:33N 54°38' E 011°10'1312.9
2014-Sep-30 20:33N 54°32' E 011°29'1312.8
2014-Sep-30 19:33N 54°26' E 011°49'1312.9
2014-Sep-30 18:33N 54°28' E 012°12'1212.0
2014-Sep-30 17:33N 54°39' E 012°20'1312.7
2014-Sep-30 16:33N 54°46' E 012°38'1312.9
2014-Sep-30 15:33N 54°50' E 012°59'1413.5
2014-Sep-30 14:33N 54°55' E 013°21'1312.8
2014-Sep-30 13:33N 54°59' E 013°42'1313.0
2014-Sep-30 12:33N 55°03' E 014°03'1212.3
2014-Sep-30 11:33N 55°09' E 014°22'1312.6
2014-Sep-30 10:33N 55°17' E 014°39'1010.3
2014-Sep-30 09:34N 55°18' E 014°57'9 9.2
2014-Sep-30 08:33N 55°24' E 015°10'1312.8
2014-Sep-30 07:33N 55°32' E 015°27'1613.1
2014-Sep-30 06:20N 55°42' E 015°49'5013.0
2014-Sep-30 02:26N 55°55' E 017°16'4410.8
2014-Sep-29 22:20N 55°32' E 018°23'1012.6
2014-Sep-29 21:32N 55°23' E 018°31'1212.5
2014-Sep-29 20:34N 55°12' E 018°40'1312.7
2014-Sep-29 19:34N 55°01' E 018°50'1312.5
2014-Sep-29 18:33N 54°49' E 018°59'1212.5
2014-Sep-29 17:33N 54°38' E 019°07'1212.2
2014-Sep-29 16:33N 54°26' E 018°58'9 8.5
2014-Sep-29 15:33N 54°24' E 018°44'1 0.6
2014-Sep-29 14:33N 54°24' E 018°43'0 0.0
2014-Sep-29 13:33N 54°24' E 018°43'0 0.0
2014-Sep-29 12:33N 54°24' E 018°43'0 0.0
2014-Sep-29 11:33N 54°24' E 018°43'0 0.0
2014-Sep-29 10:33N 54°24' E 018°43'0 0.0
2014-Sep-29 09:33N 54°24' E 018°43'0 0.0
2014-Sep-29 08:33N 54°24' E 018°43'0 0.0
2014-Sep-29 07:33N 54°24' E 018°43'0 0.0
2014-Sep-29 06:30N 54°24' E 018°43'0 0.0
2014-Sep-29 05:33N 54°24' E 018°43'0 0.0
2014-Sep-29 04:33N 54°24' E 018°43'0 0.0
2014-Sep-29 03:33N 54°24' E 018°43'0 0.0
2014-Sep-29 02:33N 54°24' E 018°43'0 0.0
2014-Sep-29 01:33N 54°24' E 018°43'0 0.0
2014-Sep-29 00:33N 54°24' E 018°43'0 0.0
2014-Sep-28 23:33N 54°24' E 018°43'0 0.0
2014-Sep-28 22:33N 54°24' E 018°43'0 0.0
2014-Sep-28 21:33N 54°24' E 018°43'0 0.0
2014-Sep-28 20:33N 54°24' E 018°43'0 0.0
2014-Sep-28 19:30N 54°24' E 018°43'0 0.0
2014-Sep-28 18:33N 54°24' E 018°43'0 0.0
2014-Sep-28 17:33N 54°24' E 018°43'0 0.0
2014-Sep-28 16:33N 54°24' E 018°43'1 0.7
2014-Sep-28 15:33N 54°24' E 018°44'8 7.7
2014-Sep-28 14:33N 54°27' E 018°56'6 6.4
2014-Sep-28 13:34N 54°33' E 019°02'1110.6
2014-Sep-28 12:34N 54°43' E 019°01'1212.0
2014-Sep-28 11:34N 54°55' E 018°53'1211.9
2014-Sep-28 10:33N 55°05' E 018°44'1211.9
2014-Sep-28 09:33N 55°16' E 018°36'1212.1
2014-Sep-28 08:32N 55°28' E 018°27'11510.4
2014-Sep-27 21:33N 55°29' E 015°05'1212.1
2014-Sep-27 20:33N 55°20' E 014°52'10 9.7
2014-Sep-27 19:33N 55°16' E 014°36'1312.5
2014-Sep-27 18:33N 55°08' E 014°20'1212.5
2014-Sep-27 17:33N 55°01' E 014°02'1312.6
2014-Sep-27 16:33N 54°56' E 013°41'1212.3
2014-Sep-27 15:34N 54°52' E 013°21'1412.3
2014-Sep-27 14:23N 54°47' E 012°58'1113.0
2014-Sep-27 13:34N 54°43' E 012°40'1312.9
2014-Sep-27 12:34N 54°37' E 012°20'1312.7
2014-Sep-27 11:33N 54°26' E 012°11'1212.5
2014-Sep-27 10:34N 54°25' E 011°50'1313.2
2014-Sep-27 09:34N 54°30' E 011°29'1313.5
2014-Sep-27 08:34N 54°35' E 011°07'1312.6
2014-Sep-27 07:31N 54°41' E 010°47'12111.8
2014-Sep-26 21:13N 56°38' E 011°45'812.2
2014-Sep-26 20:33N 56°45' E 011°51'1312.9
2014-Sep-26 19:32N 56°58' E 011°45'1313.5
2014-Sep-26 18:33N 57°10' E 011°36'1413.6
2014-Sep-26 17:33N 57°23' E 011°28'1313.3
2014-Sep-26 16:33N 57°33' E 011°13'1313.1
2014-Sep-26 15:33N 57°42' E 010°55'9 9.1
2014-Sep-26 14:33N 57°48' E 010°42'1313.0
2014-Sep-26 13:32N 57°49' E 010°17'5613.2
2014-Sep-26 09:19N 57°44' E 008°33'1012.1
2014-Sep-26 08:31N 57°43' E 008°15'8511.5
2014-Sep-26 01:05N 58°07' E 005°41'711.5
2014-Sep-26 00:30N 58°11' E 005°31'  
2014-Sep-22 07:18N 58°18' E 005°32'912.0
2014-Sep-22 06:34N 58°12' E 005°44'1211.7
2014-Sep-22 05:34N 58°04' E 006°01'13612.3
2014-Sep-21 18:33N 57°58' E 010°17'1413.9
2014-Sep-21 17:33N 57°60' E 010°43'1212.3
2014-Sep-21 16:33N 57°51' E 010°60'1111.4
2014-Sep-21 15:34N 57°42' E 011°14'1110.6
2014-Sep-21 14:33N 57°34' E 011°27'9 8.8
2014-Sep-21 13:33N 57°39' E 011°42'4 3.7
2014-Sep-21 12:32N 57°41' E 011°47'0 0.0
2014-Sep-21 11:32N 57°41' E 011°47'0 0.0
2014-Sep-21 10:32N 57°41' E 011°47'0 0.0
2014-Sep-21 09:32N 57°41' E 011°47'0 0.0
2014-Sep-21 08:32N 57°41' E 011°47'0 0.0
2014-Sep-21 07:32N 57°41' E 011°47'0 0.0
2014-Sep-21 06:32N 57°41' E 011°47'0 0.0
2014-Sep-21 05:32N 57°41' E 011°47'0 0.0
2014-Sep-21 04:32N 57°41' E 011°47'0 0.0
2014-Sep-21 03:32N 57°41' E 011°47'0 0.0
2014-Sep-21 02:32N 57°41' E 011°47'0 0.0
2014-Sep-21 01:32N 57°41' E 011°47'0 0.0
2014-Sep-21 00:32N 57°41' E 011°47'0 0.0
2014-Sep-20 23:32N 57°41' E 011°47'0 0.0
2014-Sep-20 22:32N 57°41' E 011°47'  
Track history (hours):
 
Tides and Currents Weather Stations Pressure Air Temp Water Temp Dewpoint Dewpoint Depression Visibility Wind Speed Wind Dir Waves Ship Positions

Target

Last reported at 2014-Sep-30 22:17 UTC. Time now 2014-Oct-01 22:24 UTC.
Position N 54°41' E 010°55'.

Length 250 m; draft 8 m.

Type: Tanker. MMSI: 248057000.

Date/timePositionNaut miles runAvg speedWind from/ knotsBaromVisibWave heightAir tempDewpointWater temp
2014-Sep-30 22:17N 54°41' E 010°55'912.7
2014-Sep-30 21:33N 54°38' E 011°10'1312.9
2014-Sep-30 20:33N 54°32' E 011°29'1312.8
2014-Sep-30 19:33N 54°26' E 011°49'1312.9
2014-Sep-30 18:33N 54°28' E 012°12'1212.0
2014-Sep-30 17:33N 54°39' E 012°20'1312.7
2014-Sep-30 16:33N 54°46' E 012°38'1312.9
2014-Sep-30 15:33N 54°50' E 012°59'1413.5
2014-Sep-30 14:33N 54°55' E 013°21'1312.8
2014-Sep-30 13:33N 54°59' E 013°42'1313.0
2014-Sep-30 12:33N 55°03' E 014°03'1212.3
2014-Sep-30 11:33N 55°09' E 014°22'1312.6
2014-Sep-30 10:33N 55°17' E 014°39'1010.3
2014-Sep-30 09:34N 55°18' E 014°57'9 9.2
2014-Sep-30 08:33N 55°24' E 015°10'1312.8
2014-Sep-30 07:33N 55°32' E 015°27'1613.1
2014-Sep-30 06:20N 55°42' E 015°49'5013.0
2014-Sep-30 02:26N 55°55' E 017°16'4410.8
2014-Sep-29 22:20N 55°32' E 018°23'1012.6
2014-Sep-29 21:32N 55°23' E 018°31'1212.5
2014-Sep-29 20:34N 55°12' E 018°40'1312.7
2014-Sep-29 19:34N 55°01' E 018°50'1312.5
2014-Sep-29 18:33N 54°49' E 018°59'1212.5
2014-Sep-29 17:33N 54°38' E 019°07'1212.2
2014-Sep-29 16:33N 54°26' E 018°58'9 8.5
2014-Sep-29 15:33N 54°24' E 018°44'1 0.6
2014-Sep-29 14:33N 54°24' E 018°43'0 0.0
2014-Sep-29 13:33N 54°24' E 018°43'0 0.0
2014-Sep-29 12:33N 54°24' E 018°43'0 0.0
2014-Sep-29 11:33N 54°24' E 018°43'0 0.0
2014-Sep-29 10:33N 54°24' E 018°43'0 0.0
2014-Sep-29 09:33N 54°24' E 018°43'0 0.0
2014-Sep-29 08:33N 54°24' E 018°43'0 0.0
2014-Sep-29 07:33N 54°24' E 018°43'0 0.0
2014-Sep-29 06:30N 54°24' E 018°43'0 0.0
2014-Sep-29 05:33N 54°24' E 018°43'0 0.0
2014-Sep-29 04:33N 54°24' E 018°43'0 0.0
2014-Sep-29 03:33N 54°24' E 018°43'0 0.0
2014-Sep-29 02:33N 54°24' E 018°43'0 0.0
2014-Sep-29 01:33N 54°24' E 018°43'0 0.0
2014-Sep-29 00:33N 54°24' E 018°43'0 0.0
2014-Sep-28 23:33N 54°24' E 018°43'0 0.0
2014-Sep-28 22:33N 54°24' E 018°43'0 0.0
2014-Sep-28 21:33N 54°24' E 018°43'0 0.0
2014-Sep-28 20:33N 54°24' E 018°43'0 0.0
2014-Sep-28 19:30N 54°24' E 018°43'0 0.0
2014-Sep-28 18:33N 54°24' E 018°43'0 0.0
2014-Sep-28 17:33N 54°24' E 018°43'0 0.0
2014-Sep-28 16:33N 54°24' E 018°43'1 0.7
2014-Sep-28 15:33N 54°24' E 018°44'8 7.7
2014-Sep-28 14:33N 54°27' E 018°56'6 6.4
2014-Sep-28 13:34N 54°33' E 019°02'1110.6
2014-Sep-28 12:34N 54°43' E 019°01'1212.0
2014-Sep-28 11:34N 54°55' E 018°53'1211.9
2014-Sep-28 10:33N 55°05' E 018°44'1211.9
2014-Sep-28 09:33N 55°16' E 018°36'1212.1
2014-Sep-28 08:32N 55°28' E 018°27'11510.4
2014-Sep-27 21:33N 55°29' E 015°05'1212.1
2014-Sep-27 20:33N 55°20' E 014°52'10 9.7
2014-Sep-27 19:33N 55°16' E 014°36'1312.5
2014-Sep-27 18:33N 55°08' E 014°20'1212.5
2014-Sep-27 17:33N 55°01' E 014°02'1312.6
2014-Sep-27 16:33N 54°56' E 013°41'1212.3
2014-Sep-27 15:34N 54°52' E 013°21'1412.3
2014-Sep-27 14:23N 54°47' E 012°58'1113.0
2014-Sep-27 13:34N 54°43' E 012°40'1312.9
2014-Sep-27 12:34N 54°37' E 012°20'1312.7
2014-Sep-27 11:33N 54°26' E 012°11'1212.5
2014-Sep-27 10:34N 54°25' E 011°50'1313.2
2014-Sep-27 09:34N 54°30' E 011°29'1313.5
2014-Sep-27 08:34N 54°35' E 011°07'1312.6
2014-Sep-27 07:31N 54°41' E 010°47'12111.8
2014-Sep-26 21:13N 56°38' E 011°45'812.2
2014-Sep-26 20:33N 56°45' E 011°51'1312.9
2014-Sep-26 19:32N 56°58' E 011°45'1313.5
2014-Sep-26 18:33N 57°10' E 011°36'1413.6
2014-Sep-26 17:33N 57°23' E 011°28'1313.3
2014-Sep-26 16:33N 57°33' E 011°13'1313.1
2014-Sep-26 15:33N 57°42' E 010°55'9 9.1
2014-Sep-26 14:33N 57°48' E 010°42'1313.0
2014-Sep-26 13:32N 57°49' E 010°17'5613.2
2014-Sep-26 09:19N 57°44' E 008°33'1012.1
2014-Sep-26 08:31N 57°43' E 008°15'8511.5
2014-Sep-26 01:05N 58°07' E 005°41'711.5
2014-Sep-26 00:30N 58°11' E 005°31'  
2014-Sep-22 07:18N 58°18' E 005°32'912.0
2014-Sep-22 06:34N 58°12' E 005°44'1211.7
2014-Sep-22 05:34N 58°04' E 006°01'13612.3
2014-Sep-21 18:33N 57°58' E 010°17'1413.9
2014-Sep-21 17:33N 57°60' E 010°43'1212.3
2014-Sep-21 16:33N 57°51' E 010°60'1111.4
2014-Sep-21 15:34N 57°42' E 011°14'1110.6
2014-Sep-21 14:33N 57°34' E 011°27'9 8.8
2014-Sep-21 13:33N 57°39' E 011°42'4 3.7
2014-Sep-21 12:32N 57°41' E 011°47'0 0.0
2014-Sep-21 11:32N 57°41' E 011°47'0 0.0
2014-Sep-21 10:32N 57°41' E 011°47'0 0.0
2014-Sep-21 09:32N 57°41' E 011°47'0 0.0
2014-Sep-21 08:32N 57°41' E 011°47'0 0.0
2014-Sep-21 07:32N 57°41' E 011°47'0 0.0
2014-Sep-21 06:32N 57°41' E 011°47'0 0.0
2014-Sep-21 05:32N 57°41' E 011°47'0 0.0
2014-Sep-21 04:32N 57°41' E 011°47'0 0.0
2014-Sep-21 03:32N 57°41' E 011°47'0 0.0
2014-Sep-21 02:32N 57°41' E 011°47'0 0.0
2014-Sep-21 01:32N 57°41' E 011°47'0 0.0
2014-Sep-21 00:32N 57°41' E 011°47'0 0.0
2014-Sep-20 23:32N 57°41' E 011°47'0 0.0
2014-Sep-20 22:32N 57°41' E 011°47'  

Dump ship's entire track history